Reedley, CA (93654)

3:16 AM PST on December 19, 2014 (GMT -0800)
Dinuba | Change Station
CLOSE
Current Station
Personal Weather Station
Location: Dinuba, CA
Elevation: 325 ft
Nearby Weather Stations

Elev 325 ft 36.56 °N, 119.41 °W | Updated 10 minutes ago

Partly Cloudy
Partly Cloudy
43.5 °F
Feels Like 44 °F
N
1.1
Wind Variable Wind from ENE

Today
High -- | Low -- °F
--% Chance of Precip.
Yesterday
High -- | Low -- °F
Precip. -- in
7:05 AM 4:44 PM
Waning Crescent, 8% visible
Pressure 30.22 in
Visibility 10.0 miles
Clouds Scattered Clouds 15000 ft
Overcast 20000 ft
Windchill 44 °F
Dew Point 43 °F
Humidity 99%
Rainfall 0.00 in
Snow Depth Not available.
UV 0 out of 12
Pollen 1.80 out of 12
Air Quality Not available.
Flu Activity Not available.
METAR KFAT 191053Z 00000KT 10SM SCT150 OVC200 08/06 A3022 RMK AO2 SLP233 T00830056

More Conditions Fewer Conditions

Pressure 30.22 in
Visibility 10.0 miles
Clouds Scattered Clouds 15000 ft
Overcast 20000 ft
Windchill 44 °F
Dew Point 43 °F
Humidity 99%
Rainfall 0.00 in
Snow Depth Not available.
UV 0 out of 12
Pollen 1.80 out of 12
Air Quality Not available.
Flu Activity Not available.
METAR KFAT 191053Z 00000KT 10SM SCT150 OVC200 08/06 A3022 RMK AO2 SLP233 T00830056

More Conditions Fewer Conditions

10-Day Weather Forecast

Almanac

Astronomy

Dec. 19, 2014 Rise Set
Actual Time
Civil Twilight
Nautical Twilight
Astronomical Twilight
Moon
Length of Visible Light
Length of Day
Tomorrow will be .
, % of the Moon is Illuminated

Today's Extremes

State Highs State Lows

Community

WunderPhotos

Upload Photos

1,778,965 photos uploaded!

WunderBlogs® & News

Nearby

Air Quality

  Air Quality AQ Index Pollutant
Not available.

Snow Depth

Station Depth Elevation

Earthquake Activity

City Distance Mag. Time & Date
Minimum magnitude displayed is 2.5.

Coastal Water Temperatures

Place Temperature

Nearby Weather Stations